Terminal Aerodrome Forecast
Issued by NWS

Home | Current Version | Previous Version | Text Only | Print | Product List | Glossary On
Versions: 1 2 3 4 5 6 7 8 9 10 11 12 13 14 15 16 17 18 19
000
FTUS41 KPHI 220600 AAA
TAFPNE
TAF AMD
KPNE 220625Z 2206/2306 08008KT P6SM -SHRA SCT005 OVC015
      TEMPO 2206/2209 3SM TSRA OVC005CB
     FM220900 08006KT 4SM BR OVC015
      TEMPO 2209/2212 -SHRA
     FM221300 11004KT P6SM OVC020
     FM221700 09006KT P6SM -SHRA BKN040
     FM230300 08007KT 5SM BR OVC025=

USA.gov is the U.S. government's official web portal to all federal, state and local government web resources and services.